Time;durP1;ratioP1;P1;durP2;ratioP2;P2;SDS_P1;SDS_P2;PMS_P1;PMS_P2;Temp;Humidity;BMP_temperature;BMP_pressure;BME280_temperature;BME280_humidity;BME280_pressure;Samples;Min_cycle;Max_cycle;Signal;HPM_P1;HPM_P2
2021/12/16 00:09:00;;;;;;;15.68;8.20;;;;;;;;;;5138811;27;20486;-88
2021/12/16 00:29:08;;;;;;;25.20;8.10;;;8.60;99.90;;;;;;5077368;28;20366;-87
2021/12/16 00:31:19;;;;;;;21.20;8.07;;;8.80;99.90;;;;;;5075678;28;20044;-88
2021/12/16 00:33:57;;;;;;;18.20;7.65;;;;;;;;;;5076361;28;20051;-87
2021/12/16 00:36:23;;;;;;;13.98;7.25;;;;;;;;;;5059504;28;20048;-87
2021/12/16 00:38:49;;;;;;;16.50;7.47;;;;;;;;;;5059520;28;20052;-88
2021/12/16 00:41:15;;;;;;;20.35;8.10;;;;;;;;;;5075529;28;20538;-88
2021/12/16 00:44:02;;;;;;;15.68;7.50;;;;;;;;;;5060064;28;20123;-87
2021/12/16 00:49:31;;;;;;;19.38;6.90;;;;;;;;;;5092609;28;20079;-87
2021/12/16 00:54:48;;;;;;;13.98;6.95;;;;;;;;;;5137560;27;20058;-87
2021/12/16 00:57:15;;;;;;;15.50;6.65;;;;;;;;;;5120757;27;20134;-87
2021/12/16 00:59:48;;;;;;;18.38;7.43;;;;;;;;;;5120848;27;20078;-87
2021/12/16 01:35:23;;;;;;;19.30;7.35;;;;;;;;;;5137798;27;20577;-87
2021/12/16 01:38:28;;;;;;;18.02;7.40;;;;;;;;;;5120398;27;20554;-87
2021/12/16 01:51:25;;;;;;;18.63;6.32;;;;;;;;;;5138274;27;20050;-88
2021/12/16 01:56:59;;;;;;;13.93;6.97;;;;;;;;;;5136984;27;20086;-88
2021/12/16 01:59:33;;;;;;;28.55;8.05;;;;;;;;;;5121230;27;20138;-87
2021/12/16 02:02:11;;;;;;;;;;;8.70;99.90;;;;;;5124883;27;20034;-87
2021/12/16 02:04:44;;;;;;;24.38;7.70;;;;;;;;;;5126295;27;19919;-87
2021/12/16 02:07:29;;;;;;;11.45;6.65;;;;;;;;;;5125470;27;20047;-87
2021/12/16 02:10:02;;;;;;;14.02;6.65;;;;;;;;;;5125136;27;20043;-87
2021/12/16 02:12:52;;;;;;;14.18;7.05;;;;;;;;;;5125558;27;20058;-87
2021/12/16 02:34:29;;;;;;;17.55;7.13;;;;;;;;;;5138798;27;20038;-87
2021/12/16 02:36:56;;;;;;;17.00;7.40;;;;;;;;;;5137193;27;20140;-87
2021/12/16 02:39:30;;;;;;;19.42;7.10;;;;;;;;;;5136935;27;20448;-87
2021/12/16 02:42:04;;;;;;;;;;;8.70;99.90;;;;;;5137794;27;20499;-87
2021/12/16 02:48:28;;;;;;;16.00;6.32;;;;;;;;;;5137288;27;20272;-87
2021/12/16 02:50:07;;;;;;;9.68;5.78;;;;;;;;;;5138794;27;20092;-87
2021/12/16 02:52:33;;;;;;;22.75;8.20;;;;;;;;;;5136309;27;20050;-87
2021/12/16 02:54:59;;;;;;;20.15;7.28;;;;;;;;;;5137136;27;20144;-87
2021/12/16 02:57:26;;;;;;;15.32;6.68;;;;;;;;;;5139072;27;20130;-87
2021/12/16 02:59:53;;;;;;;12.15;6.00;;;8.60;99.90;;;;;;5120336;27;20039;-87
2021/12/16 03:02:19;;;;;;;18.15;6.43;;;;;;;;;;5136364;27;20062;-87
2021/12/16 03:04:47;;;;;;;19.33;6.22;;;;;;;;;;5136197;27;20062;-87
2021/12/16 03:07:15;;;;;;;19.67;6.60;;;;;;;;;;5137867;27;20047;-87
2021/12/16 03:12:45;;;;;;;16.92;6.50;;;;;;;;;;5136187;27;20108;-87
2021/12/16 03:18:13;;;;;;;11.80;6.45;;;;;;;;;;5078964;28;20048;-87
2021/12/16 03:20:54;;;;;;;15.07;7.18;;;;;;;;;;5062216;28;20087;-87
2021/12/16 03:23:44;;;;;;;14.38;7.25;;;;;;;;;;5078533;28;20417;-87
2021/12/16 03:29:27;;;;;;;17.98;7.20;;;;;;;;;;5077406;28;20063;-87
2021/12/16 03:32:07;;;;;;;12.73;7.45;;;;;;;;;;5076839;28;20055;-87
2021/12/16 03:34:42;;;;;;;14.45;6.97;;;;;;;;;;5059780;28;20101;-87
2021/12/16 03:37:24;;;;;;;17.05;6.57;;;7.90;99.90;;;;;;5060954;28;20346;-87
2021/12/16 03:40:05;;;;;;;12.23;7.22;;;;;;;;;;5076781;28;20470;-87
2021/12/16 03:42:42;;;;;;;17.50;6.97;;;;;;;;;;5061010;28;20052;-87
2021/12/16 03:48:37;;;;;;;16.77;6.82;;;;;;;;;;5038334;28;20386;-86
2021/12/16 03:51:06;;;;;;;24.30;7.70;;;;;;;;;;5045954;28;20140;-87
2021/12/16 03:53:32;;;;;;;15.23;6.57;;;;;;;;;;5054836;28;20067;-87
2021/12/16 03:55:58;;;;;;;22.27;7.85;;;;;;;;;;5074144;28;20044;-87
2021/12/16 03:58:24;;;;;;;18.85;7.05;;;;;;;;;;5078009;28;20129;-87
2021/12/16 04:00:53;;;;;;;15.43;7.03;;;;;;;;;;5094168;28;20169;-87
2021/12/16 04:03:19;;;;;;;15.90;7.25;;;;;;;;;;5094897;28;20087;-87
2021/12/16 04:05:46;;;;;;;14.00;6.78;;;;;;;;;;5077898;28;20160;-87
2021/12/16 04:08:12;;;;;;;20.67;7.88;;;;;;;;;;5076834;28;20047;-87
2021/12/16 04:11:00;;;;;;;15.10;7.18;;;7.60;99.90;;;;;;5076423;28;20054;-87
2021/12/16 04:13:26;;;;;;;20.42;7.05;;;;;;;;;;5076397;28;20109;-87
2021/12/16 04:15:53;;;;;;;17.17;7.57;;;;;;;;;;5076188;28;20044;-87
2021/12/16 04:18:19;;;;;;;20.25;7.63;;;;;;;;;;5076621;28;20060;-87
2021/12/16 04:20:45;;;;;;;16.33;7.25;;;7.70;99.90;;;;;;5076017;28;20047;-87
2021/12/16 04:23:11;;;;;;;19.15;7.25;;;;;;;;;;5074649;28;20055;-87
2021/12/16 04:25:42;;;;;;;14.40;7.45;;;7.30;99.90;;;;;;5100956;27;20047;-87
2021/12/16 04:28:17;;;;;;;16.15;7.82;;;7.40;99.90;;;;;;5134660;27;20484;-87
2021/12/16 04:30:43;;;;;;;13.35;7.05;;;;;;;;;;5117343;27;20060;-87
2021/12/16 04:33:09;;;;;;;13.75;6.85;;;;;;;;;;5117731;27;20396;-87
2021/12/16 04:35:36;;;;;;;19.52;8.07;;;;;;;;;;5118077;27;20043;-87
2021/12/16 04:38:04;;;;;;;14.02;7.72;;;;;;;;;;5134704;27;20365;-87
2021/12/16 04:40:30;;;;;;;12.07;6.97;;;;;;;;;;5134670;27;20050;-87
2021/12/16 04:43:01;;;;;;;15.98;7.28;;;;;;;;;;5134227;27;20050;-87
2021/12/16 04:45:27;;;;;;;16.58;7.60;;;;;;;;;;5134042;27;20462;-87
2021/12/16 04:47:53;;;;;;;15.50;6.93;;;;;;;;;;5134433;27;20043;-87
2021/12/16 04:50:20;;;;;;;15.95;7.07;;;;;;;;;;5117180;27;20147;-87
2021/12/16 04:52:46;;;;;;;16.58;7.28;;;;;;;;;;5117053;27;20091;-87
2021/12/16 04:55:14;;;;;;;12.95;6.70;;;7.20;99.90;;;;;;5116753;27;20102;-88
2021/12/16 04:57:41;;;;;;;18.52;7.10;;;;;;;;;;5117053;27;20395;-88
2021/12/16 05:00:10;;;;;;;13.18;5.53;;;;;;;;;;5116610;27;20042;-88
2021/12/16 05:02:36;;;;;;;9.35;5.30;;;;;;;;;;5133660;27;20054;-87
2021/12/16 05:05:03;;;;;;;9.27;5.32;;;;;;;;;;5116611;27;20043;-88
2021/12/16 05:07:30;;;;;;;15.23;5.90;;;;;;;;;;5135177;27;20084;-88
2021/12/16 05:10:07;;;;;;;9.52;5.55;;;;;;;;;;5117252;27;20548;-88
2021/12/16 05:12:37;;;;;;;9.40;6.13;;;;;;;;;;5134150;27;20089;-88
2021/12/16 05:15:08;;;;;;;16.13;6.30;;;;;;;;;;5116954;28;20043;-88
2021/12/16 05:17:41;;;;;;;12.10;6.40;;;;;;;;;;5117497;28;20502;-87
2021/12/16 05:20:10;;;;;;;18.05;6.72;;;;;;;;;;5116765;28;20047;-87
2021/12/16 05:25:54;;;;;;;19.77;8.25;;;;;;;;;;5135625;28;20047;-88
2021/12/16 05:28:07;;;;;;;16.58;7.55;;;;;;;;;;5134112;28;20055;-88
2021/12/16 05:30:34;;;;;;;15.90;7.20;;;6.80;99.90;;;;;;5116733;28;20138;-87
2021/12/16 05:33:00;;;;;;;14.25;7.07;;;;;;;;;;5117513;27;20399;-87
2021/12/16 05:35:27;;;;;;;14.90;7.63;;;;;;;;;;5138021;27;20042;-88
2021/12/16 05:37:53;;;;;;;12.57;7.10;;;;;;;;;;5120361;27;20549;-88
2021/12/16 05:40:24;;;;;;;10.73;6.95;;;6.70;99.90;;;;;;5120795;27;20401;-88
2021/12/16 05:43:04;;;;;;;17.52;6.93;;;6.70;99.90;;;;;;5120592;27;20043;-87
2021/12/16 05:45:31;;;;;;;17.55;7.28;;;;;;;;;;5120469;27;20035;-87
2021/12/16 05:47:59;;;;;;;13.73;7.63;;;6.80;99.90;;;;;;5137847;27;20043;-87
2021/12/16 05:50:25;;;;;;;16.30;6.65;;;;;;;;;;5120907;27;20046;-87
2021/12/16 05:52:51;;;;;;;17.15;8.57;;;;;;;;;;5121236;27;20071;-87
2021/12/16 05:55:18;;;;;;;15.98;7.57;;;;;;;;;;5121505;27;20434;-87
2021/12/16 05:57:44;;;;;;;17.65;7.97;;;;;;;;;;5137337;27;20047;-87
2021/12/16 06:00:21;;;;;;;12.60;7.47;;;;;;;;;;5137953;27;20042;-86
2021/12/16 06:02:47;;;;;;;17.98;7.63;;;;;;;;;;5138603;27;20066;-87
2021/12/16 06:05:14;;;;;;;15.32;7.53;;;;;;;;;;5137681;27;20051;-87
2021/12/16 06:07:40;;;;;;;15.60;7.82;;;;;;;;;;5139097;27;20035;-87
2021/12/16 06:10:11;;;;;;;15.68;7.45;;;;;;;;;;5139440;27;20074;-87
2021/12/16 06:12:38;;;;;;;16.50;7.75;;;;;;;;;;5138096;27;20054;-87
2021/12/16 06:15:35;;;;;;;15.65;7.50;;;;;;;;;;5122765;27;20047;-87
2021/12/16 06:28:51;;;;;;;20.63;7.90;;;;;;;;;;5137022;27;20046;-87
2021/12/16 06:31:17;;;;;;;15.02;7.97;;;;;;;;;;5137186;27;20628;-87
2021/12/16 06:33:43;;;;;;;19.77;8.82;;;;;;;;;;5120031;27;20038;-87
2021/12/16 06:36:09;;;;;;;19.67;8.18;;;;;;;;;;5138544;27;20039;-87
2021/12/16 06:38:35;;;;;;;24.02;9.35;;;;;;;;;;5120366;27;20105;-87
2021/12/16 06:41:01;;;;;;;19.10;8.95;;;;;;;;;;5137064;27;20058;-87
2021/12/16 06:43:27;;;;;;;20.40;9.30;;;;;;;;;;5136921;27;20047;-87
2021/12/16 06:45:56;;;;;;;20.50;10.27;;;;;;;;;;5119836;27;20101;-87
2021/12/16 06:48:28;;;;;;;26.63;10.25;;;;;;;;;;5137449;27;20411;-87
2021/12/16 06:51:02;;;;;;;18.75;8.18;;;;;;;;;;5137811;27;20047;-87
2021/12/16 06:53:45;;;;;;;15.35;9.57;;;;;;;;;;5137880;27;20047;-87
2021/12/16 06:56:18;;;;;;;15.18;7.85;;;;;;;;;;5137847;27;20047;-87
2021/12/16 06:58:48;;;;;;;12.50;7.38;;;;;;;;;;5120265;27;20043;-87
2021/12/16 07:01:37;;;;;;;16.30;8.07;;;;;;;;;;5119922;27;20498;-87
2021/12/16 07:04:05;;;;;;;22.20;9.23;;;;;;;;;;5119299;27;20051;-87
2021/12/16 07:06:32;;;;;;;20.83;9.57;;;;;;;;;;5136674;27;20476;-87
2021/12/16 07:09:00;;;;;;;20.58;9.55;;;;;;;;;;5119613;27;20514;-87
2021/12/16 07:11:26;;;;;;;24.88;10.05;;;;;;;;;;5119762;27;20047;-87
2021/12/16 07:13:58;;;;;;;24.00;9.77;;;;;;;;;;5119516;27;20035;-87
2021/12/16 07:16:25;;;;;;;23.23;8.60;;;;;;;;;;5137062;27;20542;-86
2021/12/16 07:18:51;;;;;;;27.35;8.60;;;;;;;;;;5119117;27;20046;-87
2021/12/16 07:21:17;;;;;;;23.25;9.35;;;;;;;;;;5136108;27;20119;-87
2021/12/16 07:23:43;;;;;;;20.95;8.60;;;;;;;;;;5120374;27;20067;-87
2021/12/16 07:26:09;;;;;;;19.45;8.80;;;;;;;;;;5119253;27;20380;-87
2021/12/16 07:28:35;;;;;;;16.15;9.35;;;;;;;;;;5119503;27;20442;-87
2021/12/16 07:31:01;;;;;;;17.40;9.50;;;;;;;;;;5136410;27;20047;-87
2021/12/16 07:33:28;;;;;;;17.52;9.30;;;;;;;;;;5119094;27;20092;-87
2021/12/16 07:35:54;;;;;;;25.52;10.30;;;;;;;;;;5119324;27;20055;-87
2021/12/16 07:38:21;;;;;;;23.17;10.63;;;;;;;;;;5120478;27;20395;-87
2021/12/16 07:40:49;;;;;;;19.45;8.98;;;;;;;;;;5120272;27;20122;-87
2021/12/16 07:45:51;;;;;;;19.23;9.15;;;;;;;;;;5137374;27;20393;-87
2021/12/16 07:48:18;;;;;;;22.23;10.00;;;6.30;99.90;;;;;;5119672;27;20058;-87
2021/12/16 07:50:46;;;;;;;20.52;9.60;;;;;;;;;;5120044;27;20039;-87
2021/12/16 07:53:12;;;;;;;21.20;9.80;;;;;;;;;;5138610;27;20035;-87
2021/12/16 07:55:41;;;;;;;22.27;10.73;;;;;;;;;;5137302;27;20047;-87
2021/12/16 07:58:07;;;;;;;23.83;10.75;;;;;;;;;;5118735;27;20495;-87
2021/12/16 08:00:34;;;;;;;21.17;10.30;;;;;;;;;;5118082;27;20091;-87
2021/12/16 08:03:01;;;;;;;21.52;10.40;;;;;;;;;;5134853;27;20518;-87
2021/12/16 08:05:28;;;;;;;16.17;10.43;;;;;;;;;;5137882;27;20055;-87
2021/12/16 08:07:55;;;;;;;21.08;10.65;;;;;;;;;;5118157;27;20544;-87
2021/12/16 08:10:23;;;;;;;19.40;10.00;;;;;;;;;;5135434;27;20047;-87
2021/12/16 08:12:49;;;;;;;24.63;9.93;;;;;;;;;;5135437;27;20505;-87
2021/12/16 08:15:16;;;;;;;19.10;10.93;;;;;;;;;;5117714;27;20043;-87
2021/12/16 08:17:42;;;;;;;20.00;10.57;;;;;;;;;;5117633;27;20043;-87
2021/12/16 08:20:10;;;;;;;23.23;11.23;;;;;;;;;;5117166;27;20528;-87
2021/12/16 08:22:36;;;;;;;43.38;13.32;;;;;;;;;;5134593;27;20051;-87
2021/12/16 08:25:03;;;;;;;23.00;10.85;;;;;;;;;;5134985;27;20175;-88
2021/12/16 08:27:29;;;;;;;20.13;10.93;;;;;;;;;;5135979;27;20381;-87
2021/12/16 08:29:55;;;;;;;22.88;12.45;;;;;;;;;;5134525;27;20072;-87
2021/12/16 08:32:22;;;;;;;26.85;11.68;;;;;;;;;;5135897;27;20551;-88
2021/12/16 08:34:48;;;;;;;24.48;11.65;;;;;;;;;;5134987;27;20062;-87
2021/12/16 08:37:15;;;;;;;28.48;10.98;;;;;;;;;;5135868;27;20082;-87
2021/12/16 08:39:43;;;;;;;25.73;11.82;;;;;;;;;;5136474;27;20122;-87
2021/12/16 08:42:10;;;;;;;16.67;10.32;;;;;;;;;;5135432;27;20058;-88
2021/12/16 08:44:36;;;;;;;20.23;10.93;;;;;;;;;;5117018;27;20085;-87
2021/12/16 08:47:08;;;;;;;23.38;11.15;;;;;;;;;;5134416;27;20051;-87
2021/12/16 08:49:34;;;;;;;29.88;11.73;;;;;;;;;;5117423;27;20050;-87
2021/12/16 08:52:04;;;;;;;33.38;11.77;;;;;;;;;;5133918;27;20487;-87
2021/12/16 08:54:30;;;;;;;24.02;12.82;;;;;;;;;;5116662;27;20046;-87
2021/12/16 08:56:56;;;;;;;22.88;12.18;;;;;;;;;;5117312;27;20043;-87
2021/12/16 08:59:24;;;;;;;32.78;11.70;;;;;;;;;;5117146;27;20051;-87
2021/12/16 09:01:52;;;;;;;31.23;11.88;;;;;;;;;;5134412;27;20047;-87
2021/12/16 09:04:19;;;;;;;39.45;13.30;;;;;;;;;;5134393;27;20051;-87
2021/12/16 09:06:46;;;;;;;31.30;12.40;;;;;;;;;;5134341;27;20104;-88
2021/12/16 09:09:13;;;;;;;38.58;13.80;;;;;;;;;;5134296;27;20043;-88
2021/12/16 09:11:55;;;;;;;41.65;14.43;;;;;;;;;;5134638;27;20047;-87
2021/12/16 09:14:21;;;;;;;33.58;14.35;;;;;;;;;;5136866;28;20059;-88
2021/12/16 09:16:47;;;;;;;48.92;15.82;;;;;;;;;;5118114;28;20050;-88
2021/12/16 09:19:13;;;;;;;35.05;13.88;;;;;;;;;;5117307;28;20054;-88
2021/12/16 09:21:39;;;;;;;79.68;17.58;;;;;;;;;;5135390;28;20043;-88
2021/12/16 09:24:07;;;;;;;46.08;15.35;;;;;;;;;;5136568;28;20124;-88
2021/12/16 09:26:33;;;;;;;85.85;18.00;;;;;;;;;;5117911;28;20545;-88
2021/12/16 09:28:59;;;;;;;36.85;14.15;;;;;;;;;;5133666;28;20616;-88
2021/12/16 09:31:27;;;;;;;49.83;14.85;;;;;;;;;;5117378;28;20510;-88
2021/12/16 09:33:54;;;;;;;48.63;14.75;;;;;;;;;;5116847;28;20041;-87
2021/12/16 09:36:22;;;;;;;60.03;16.02;;;;;;;;;;5116615;28;20047;-88
2021/12/16 09:38:49;;;;;;;59.90;16.27;;;;;;;;;;5117107;28;20035;-88
2021/12/16 09:41:15;;;;;;;58.10;17.30;;;;;;;;;;5133468;28;20411;-87
2021/12/16 09:43:44;;;;;;;54.97;17.52;;;;;;;;;;5116939;28;20089;-88
2021/12/16 09:46:12;;;;;;;147.77;23.80;;;;;;;;;;5134510;28;20384;-88
2021/12/16 09:48:38;;;;;;;59.42;15.82;;;;;;;;;;5117065;28;20107;-87
2021/12/16 09:51:06;;;;;;;26.23;14.80;;;;;;;;;;5117194;28;20138;-88
2021/12/16 09:53:33;;;;;;;223.02;29.63;;;;;;;;;;5118040;28;20039;-87
2021/12/16 09:56:01;;;;;;;56.55;18.15;;;;;;;;;;5116790;28;20073;-87
2021/12/16 09:58:34;;;;;;;71.72;17.00;;;;;;;;;;5117604;28;20039;-87
2021/12/16 10:01:01;;;;;;;131.45;23.15;;;;;;;;;;5116763;28;20120;-88
2021/12/16 10:03:28;;;;;;;61.35;17.38;;;;;;;;;;5117186;28;20134;-87
2021/12/16 10:05:54;;;;;;;62.78;19.17;;;;;;;;;;5116298;28;20423;-88
2021/12/16 10:08:21;;;;;;;74.70;17.50;;;;;;;;;;5116464;28;20047;-87
2021/12/16 10:10:47;;;;;;;171.18;24.80;;;;;;;;;;5117038;28;20050;-88
2021/12/16 10:13:21;;;;;;;81.68;15.77;;;;;;;;;;5116270;28;20088;-87
2021/12/16 10:18:21;;;;;;;68.70;13.93;;;;;;;;;;5134140;28;19919;-87
2021/12/16 10:20:54;;;;;;;244.90;27.20;;;;;;;;;;5119240;27;20039;-87
2021/12/16 10:23:34;;;;;;;52.97;13.80;;;;;;;;;;5120085;27;20039;-87
2021/12/16 10:26:02;;;;;;;76.65;16.90;;;;;;;;;;5138616;27;20046;-87
2021/12/16 10:28:33;;;;;;;160.18;23.55;;;;;;;;;;5120131;27;20050;-87
2021/12/16 10:31:04;;;;;;;46.83;13.65;;;;;;;;;;5119726;27;20092;-88
2021/12/16 10:33:33;;;;;;;80.30;17.80;;;;;;;;;;5119980;27;20050;-87
2021/12/16 10:35:59;;;;;;;120.30;21.05;;;;;;;;;;5136968;27;20050;-88
2021/12/16 10:38:25;;;;;;;58.95;18.30;;;;;;;;;;5119631;27;20387;-87
2021/12/16 10:40:56;;;;;;;42.83;15.65;;;;;;;;;;5119273;27;20067;-87
2021/12/16 10:43:34;;;;;;;36.47;13.95;;;;;;;;;;5136160;27;20054;-87
2021/12/16 10:46:00;;;;;;;105.00;18.83;;;;;;;;;;5136903;27;20043;-87
2021/12/16 10:48:26;;;;;;;73.47;17.48;;;;;;;;;;5136482;27;20051;-87
2021/12/16 10:50:55;;;;;;;68.28;15.52;;;;;;;;;;5136930;27;20493;-87
2021/12/16 10:53:42;;;;;;;170.32;19.58;;;7.50;99.90;;;;;;5136276;27;20049;-87
2021/12/16 10:56:08;;;;;;;112.22;17.63;;;;;;;;;;5120482;27;20043;-87
2021/12/16 10:58:55;;;;;;;61.78;13.90;;;;;;;;;;5119713;27;20070;-87
2021/12/16 11:01:42;;;;;;;132.30;19.77;;;7.70;99.90;;;;;;5119007;27;20043;-88
2021/12/16 11:04:23;;;;;;;37.05;13.27;;;;;;;;;;5118529;27;20067;-88
2021/12/16 11:06:58;;;;;;;69.65;14.40;;;;;;;;;;5118989;27;20042;-87
2021/12/16 11:09:27;;;;;;;118.40;17.50;;;;;;;;;;5118791;27;20047;-87
2021/12/16 11:12:08;;;;;;;45.08;13.57;;;;;;;;;;5135854;27;20479;-87
2021/12/16 11:14:35;;;;;;;84.30;15.15;;;;;;;;;;5136214;27;20476;-87
2021/12/16 11:17:04;;;;;;;59.90;15.73;;;7.70;99.90;;;;;;5119113;27;20130;-88
2021/12/16 11:19:45;;;;;;;77.80;14.13;;;;;;;;;;5119275;27;20484;-87
2021/12/16 11:22:13;;;;;;;73.95;13.15;;;;;;;;;;5135690;27;20090;-87
2021/12/16 11:24:39;;;;;;;33.45;12.38;;;;;;;;;;5119184;27;20044;-87
2021/12/16 11:27:20;;;;;;;39.75;13.30;;;;;;;;;;5136172;27;20518;-87
2021/12/16 11:29:47;;;;;;;33.45;11.85;;;;;;;;;;5119932;27;20043;-87
2021/12/16 11:32:42;;;;;;;32.38;11.32;;;8.00;99.90;;;;;;5137874;27;20035;-87
2021/12/16 11:35:30;;;;;;;47.28;13.30;;;7.80;99.90;;;;;;5136527;27;20395;-86
2021/12/16 11:37:57;;;;;;;74.82;14.35;;;;;;;;;;5119313;27;20043;-87
2021/12/16 11:40:25;;;;;;;105.18;16.55;;;8.10;99.90;;;;;;5119657;27;20031;-88
2021/12/16 11:43:05;;;;;;;59.30;13.13;;;8.30;99.90;;;;;;5119551;27;20492;-87
2021/12/16 11:45:32;;;;;;;66.80;15.82;;;;;;;;;;5119060;27;20031;-87
2021/12/16 11:47:58;;;;;;;77.28;15.43;;;;;;;;;;5136843;27;20511;-87
2021/12/16 11:50:32;;;;;;;43.47;15.05;;;;;;;;;;5118906;27;20411;-88
2021/12/16 11:52:58;;;;;;;135.52;16.63;;;;;;;;;;5135450;27;20043;-88
2021/12/16 11:55:24;;;;;;;83.60;16.13;;;;;;;;;;5135590;27;20053;-88
2021/12/16 11:57:52;;;;;;;100.50;19.10;;;;;;;;;;5118470;27;20469;-88
2021/12/16 12:00:21;;;;;;;101.72;18.52;;;;;;;;;;5135359;27;20039;-87
2021/12/16 12:02:49;;;;;;;130.45;20.77;;;;;;;;;;5135041;27;20491;-87
2021/12/16 12:05:32;;;;;;;66.18;16.73;;;;;;;;;;5118035;27;20043;-87
2021/12/16 12:08:00;;;;;;;63.33;17.10;;;;;;;;;;5118567;27;20047;-87
2021/12/16 12:11:06;;;;;;;95.63;18.25;;;8.20;99.90;;;;;;5136391;27;20043;-88
2021/12/16 12:13:38;;;;;;;85.00;18.30;;;;;;;;;;5118896;27;20047;-87
2021/12/16 12:16:08;;;;;;;190.82;27.00;;;8.40;99.90;;;;;;5118020;27;20051;-87
2021/12/16 12:18:41;;;;;;;109.60;23.95;;;;;;;;;;5117856;27;20495;-88
2021/12/16 12:21:27;;;;;;;58.45;18.55;;;8.40;99.90;;;;;;5135537;27;20446;-88
2021/12/16 12:23:54;;;;;;;63.92;17.67;;;8.30;99.90;;;;;;5118135;27;20513;-88
2021/12/16 12:26:21;;;;;;;82.85;20.55;;;;;;;;;;5118278;27;20152;-87
2021/12/16 12:28:47;;;;;;;58.17;17.13;;;;;;;;;;5135431;27;20035;-88
2021/12/16 12:31:15;;;;;;;87.05;20.45;;;;;;;;;;5118429;27;20079;-88
2021/12/16 12:33:42;;;;;;;77.70;19.88;;;;;;;;;;5136640;27;20043;-88
2021/12/16 12:36:08;;;;;;;98.32;18.20;;;;;;;;;;5117095;27;20088;-88
2021/12/16 12:38:35;;;;;;;71.78;18.65;;;;;;;;;;5118430;28;20054;-88
2021/12/16 12:41:01;;;;;;;78.78;19.02;;;;;;;;;;5134746;27;20039;-88
2021/12/16 12:43:29;;;;;;;135.38;25.58;;;;;;;;;;5134272;27;20074;-88
2021/12/16 12:45:55;;;;;;;57.15;16.35;;;;;;;;;;5117515;27;20053;-88
2021/12/16 12:48:22;;;;;;;67.35;16.88;;;;;;;;;;5134948;27;20054;-88
2021/12/16 12:50:50;;;;;;;47.88;14.65;;;;;;;;;;5118352;27;20054;-88
2021/12/16 12:53:31;;;;;;;64.18;16.98;;;;;;;;;;5118619;27;20498;-87
2021/12/16 12:56:07;;;;;;;53.33;17.38;;;;;;;;;;5136104;27;20074;-88
2021/12/16 12:58:34;;;;;;;122.63;23.20;;;;;;;;;;5118711;27;20486;-88
2021/12/16 13:01:05;;;;;;;73.43;20.77;;;;;;;;;;5118093;27;20039;-87
2021/12/16 13:03:37;;;;;;;46.55;15.82;;;;;;;;;;5135849;27;20055;-88
2021/12/16 13:06:07;;;;;;;47.42;16.50;;;;;;;;;;5134399;27;20094;-87
2021/12/16 13:08:36;;;;;;;56.50;17.88;;;;;;;;;;5116928;28;20035;-88
2021/12/16 13:11:12;;;;;;;82.47;19.95;;;;;;;;;;5120540;27;20050;-88
2021/12/16 13:13:56;;;;;;;62.10;19.10;;;;;;;;;;5137655;27;20562;-88
2021/12/16 13:25:10;;;;;;;97.18;21.20;;;;;;;;;;5075801;28;20247;-88
2021/12/16 13:27:40;;;;;;;54.30;15.45;;;;;;;;;;5076409;28;20052;-88
2021/12/16 13:32:48;;;;;;;56.05;16.08;;;;;;;;;;5077192;28;20083;-88
2021/12/16 13:37:52;;;;;;;87.30;18.52;;;;;;;;;;5075228;28;20139;-87
2021/12/16 13:40:20;;;;;;;53.97;15.43;;;;;;;;;;5092439;28;20075;-87
2021/12/16 13:43:01;;;;;;;47.15;14.27;;;;;;;;;;5092514;28;20119;-88
2021/12/16 13:45:33;;;;;;;52.63;14.02;;;;;;;;;;5075110;28;20056;-88
2021/12/16 14:04:59;;;;;;;62.30;15.52;;;;;;;;;;5098855;28;20048;-87
2021/12/16 14:07:55;;;;;;;57.10;14.87;;;9.00;99.90;;;;;;5116315;28;20048;-88
2021/12/16 14:10:34;;;;;;;55.65;16.17;;;;;;;;;;5117246;28;20289;-87
2021/12/16 14:16:43;;;;;;;51.67;15.90;;;;;;;;;;5099903;28;20052;-88
2021/12/16 14:25:18;;;;;;;56.83;14.65;;;8.80;99.90;;;;;;5114092;27;20131;-87
2021/12/16 14:39:38;;;;;;;43.50;13.85;;;;;;;;;;5141982;27;20077;-88
2021/12/16 14:41:39;;;;;;;31.35;11.88;;;;;;;;;;5130265;27;20043;-87
2021/12/16 14:47:03;;;;;;;27.70;10.25;;;;;;;;;;5141199;27;20047;-87
2021/12/16 14:49:29;;;;;;;32.97;12.05;;;;;;;;;;5122980;27;20042;-87
2021/12/16 14:51:58;;;;;;;35.83;11.30;;;;;;;;;;5140774;27;20038;-87
2021/12/16 14:54:24;;;;;;;54.40;15.10;;;;;;;;;;5123235;27;20244;-87
2021/12/16 14:56:57;;;;;;;32.88;12.35;;;;;;;;;;5139893;27;20076;-88
2021/12/16 14:59:25;;;;;;;39.40;13.57;;;;;;;;;;5122429;27;20039;-88
2021/12/16 15:01:53;;;;;;;31.70;12.38;;;;;;;;;;5141478;27;20179;-87
2021/12/16 15:04:24;;;;;;;42.17;12.90;;;;;;;;;;5137880;27;20061;-88
2021/12/16 15:06:56;;;;;;;28.98;12.65;;;;;;;;;;5136410;27;20058;-88
2021/12/16 15:09:32;;;;;;;24.92;11.25;;;;;;;;;;5120828;27;20496;-87
2021/12/16 15:15:01;;;;;;;32.00;13.23;;;;;;;;;;5137694;27;20039;-88
2021/12/16 15:31:44;;;;;;;42.55;13.32;;;8.70;99.90;;;;;;5121981;27;20043;-88
2021/12/16 15:45:23;;;;;;;48.67;17.90;;;8.60;99.90;;;;;;5135786;27;20484;-88
2021/12/16 15:47:53;;;;;;;80.22;22.10;;;;;;;;;;5118826;27;20043;-88
2021/12/16 15:50:30;;;;;;;65.40;20.05;;;;;;;;;;5136786;27;20122;-88
2021/12/16 15:52:57;;;;;;;44.30;17.27;;;;;;;;;;5135296;27;20126;-88
2021/12/16 15:55:28;;;;;;;56.60;20.48;;;;;;;;;;5135671;27;20047;-88
2021/12/16 15:57:58;;;;;;;45.92;17.33;;;;;;;;;;5135467;27;20043;-88
2021/12/16 16:00:25;;;;;;;46.45;19.15;;;;;;;;;;5135152;27;20057;-87
2021/12/16 16:02:51;;;;;;;51.40;19.65;;;;;;;;;;5118203;27;20130;-87
2021/12/16 16:05:18;;;;;;;47.15;19.67;;;;;;;;;;5149388;27;20053;-88
2021/12/16 16:07:44;;;;;;;70.13;21.77;;;;;;;;;;5139355;27;20055;-88
2021/12/16 16:10:13;;;;;;;60.47;22.08;;;;;;;;;;5121473;27;20038;-87
2021/12/16 16:12:39;;;;;;;62.55;20.88;;;;;;;;;;5138785;27;20049;-88
2021/12/16 16:15:19;;;;;;;63.58;22.00;;;8.70;99.90;;;;;;5138424;27;20178;-87
2021/12/16 16:17:59;;;;;;;55.25;21.20;;;;;;;;;;5157026;27;20407;-87
2021/12/16 16:20:28;;;;;;;67.18;22.27;;;;;;;;;;5139349;27;20402;-87
2021/12/16 16:22:54;;;;;;;62.15;21.95;;;;;;;;;;5138942;27;20046;-87
2021/12/16 16:25:21;;;;;;;68.07;20.92;;;;;;;;;;5157862;27;20084;-88
2021/12/16 16:27:47;;;;;;;88.15;24.17;;;;;;;;;;5122570;27;20046;-88
2021/12/16 16:30:13;;;;;;;63.97;21.23;;;;;;;;;;5139405;27;20486;-88
2021/12/16 16:33:01;;;;;;;73.63;23.45;;;;;;;;;;5138258;27;20043;-88
2021/12/16 16:35:27;;;;;;;54.08;20.80;;;;;;;;;;5121095;27;20046;-88
2021/12/16 16:37:53;;;;;;;70.97;21.42;;;;;;;;;;5138114;27;20080;-88
2021/12/16 16:40:19;;;;;;;90.00;24.75;;;;;;;;;;5157031;27;20034;-88
2021/12/16 16:42:46;;;;;;;70.95;23.27;;;;;;;;;;5120996;27;20073;-88
2021/12/16 16:45:20;;;;;;;61.83;21.63;;;;;;;;;;5121585;27;20035;-88
2021/12/16 16:47:52;;;;;;;58.83;19.88;;;;;;;;;;5138915;27;20039;-88
2021/12/16 16:50:24;;;;;;;56.88;18.10;;;;;;;;;;5138283;27;20042;-88
2021/12/16 16:52:51;;;;;;;71.20;21.08;;;;;;;;;;5157001;27;20105;-88
2021/12/16 16:55:24;;;;;;;57.42;16.73;;;;;;;;;;5138861;27;20050;-88
2021/12/16 16:57:53;;;;;;;75.55;19.88;;;;;;;;;;5138616;27;20494;-88
2021/12/16 17:00:32;;;;;;;50.95;16.45;;;8.70;99.90;;;;;;5138252;27;20038;-87
2021/12/16 17:02:59;;;;;;;70.40;16.92;;;;;;;;;;5121333;27;20082;-88
2021/12/16 17:05:28;;;;;;;73.82;17.92;;;;;;;;;;5137168;27;20054;-88
2021/12/16 17:08:04;;;;;;;46.20;17.10;;;;;;;;;;5138217;27;20042;-88
2021/12/16 17:10:54;;;;;;;64.03;17.00;;;8.80;99.90;;;;;;5138409;27;20103;-88
2021/12/16 17:13:38;;;;;;;49.38;16.00;;;;;;;;;;5137405;27;20053;-88
2021/12/16 17:18:35;;;;;;;52.03;16.17;;;;;;;;;;5137629;27;20264;-88
2021/12/16 17:21:11;;;;;;;46.40;15.40;;;;;;;;;;5137067;27;20039;-88
2021/12/16 17:23:38;;;;;;;66.65;18.05;;;;;;;;;;5120389;27;20045;-88
2021/12/16 17:26:19;;;;;;;39.17;15.13;;;;;;;;;;5138662;27;20083;-88
2021/12/16 17:28:50;;;;;;;68.65;18.67;;;;;;;;;;5119892;27;20491;-88
2021/12/16 17:31:16;;;;;;;49.75;16.55;;;;;;;;;;5138634;27;20107;-88
2021/12/16 17:33:42;;;;;;;68.82;17.42;;;;;;;;;;5138644;27;20441;-88
2021/12/16 17:36:08;;;;;;;60.63;17.63;;;;;;;;;;5138186;27;20522;-88
2021/12/16 17:38:34;;;;;;;58.80;17.38;;;;;;;;;;5139610;27;20047;-88
2021/12/16 17:41:03;;;;;;;64.38;18.50;;;;;;;;;;5121124;27;20084;-88
2021/12/16 17:43:32;;;;;;;56.35;17.30;;;;;;;;;;5140255;27;20039;-88
2021/12/16 17:45:58;;;;;;;66.20;17.52;;;;;;;;;;5138146;27;20047;-88
2021/12/16 17:48:26;;;;;;;45.38;15.35;;;;;;;;;;5139600;27;20107;-88
2021/12/16 17:50:54;;;;;;;59.28;17.30;;;;;;;;;;5137909;27;20511;-87
2021/12/16 17:53:21;;;;;;;65.45;18.17;;;;;;;;;;5121477;27;20050;-88
2021/12/16 17:55:51;;;;;;;54.15;17.52;;;;;;;;;;5138353;27;20042;-88
2021/12/16 17:58:25;;;;;;;53.08;17.13;;;;;;;;;;5138269;27;20099;-88
2021/12/16 18:00:50;;;;;;;;;;;8.70;99.90;;;;;;5138096;27;20050;-88
2021/12/16 18:03:25;;;;;;;41.63;15.90;;;;;;;;;;5120688;27;19919;-88
2021/12/16 18:05:52;;;;;;;65.15;17.10;;;;;;;;;;5137253;27;20129;-88